createdAt,value
2022-08-09T00:04:35.003Z,16.70
2022-08-09T00:07:10.727Z,16.70
2022-08-09T00:09:41.249Z,17.20
2022-08-09T00:12:22.595Z,16.60
2022-08-09T00:15:06.536Z,17.10
2022-08-09T00:23:07.828Z,16.70
2022-08-09T00:25:54.308Z,16.30
2022-08-09T00:28:27.168Z,17.30
2022-08-09T00:33:32.787Z,16.70
2022-08-09T00:38:52.215Z,16.50
2022-08-09T00:44:11.018Z,16.60
2022-08-09T00:47:04.883Z,16.10
2022-08-09T01:02:57.186Z,15.60
2022-08-09T01:05:53.575Z,15.50
2022-08-09T01:08:36.938Z,15.40
2022-08-09T01:13:59.322Z,15.50
2022-08-09T01:16:35.899Z,15.50
2022-08-09T01:35:28.213Z,15.10
2022-08-09T01:38:09.901Z,15.10
2022-08-09T01:43:16.506Z,15.00
2022-08-09T01:45:49.218Z,15.20
2022-08-09T01:48:29.432Z,14.90
2022-08-09T01:53:41.638Z,14.80
2022-08-09T01:56:13.157Z,14.70
2022-08-09T02:23:07.895Z,14.30
2022-08-09T02:31:01.964Z,14.20
2022-08-09T02:36:32.588Z,14.10
2022-08-09T02:44:29.481Z,14.00
2022-08-09T02:47:08.001Z,14.00
2022-08-09T03:16:06.089Z,14.00
2022-08-09T03:21:10.685Z,14.00
2022-08-09T03:29:22.755Z,14.10
2022-08-09T03:37:54.443Z,13.70
2022-08-09T03:39:56.620Z,14.00
2022-08-09T03:52:58.999Z,14.80
2022-08-09T03:55:30.239Z,13.90
2022-08-09T04:11:16.705Z,14.10
2022-08-09T04:27:03.282Z,13.60
2022-08-09T04:34:36.021Z,14.20
2022-08-09T04:49:54.482Z,13.90
2022-08-09T04:52:30.399Z,14.10
2022-08-09T04:55:02.556Z,14.10
2022-08-09T05:03:12.911Z,14.70
2022-08-09T05:08:43.916Z,14.70
2022-08-09T05:24:20.024Z,14.90
2022-08-09T05:34:36.013Z,15.50
2022-08-09T05:37:11.511Z,15.60
2022-08-09T05:42:17.438Z,15.60
2022-08-09T05:44:52.595Z,15.90
2022-08-09T05:47:23.339Z,15.90
2022-08-09T05:50:26.927Z,16.10
2022-08-09T05:52:53.799Z,16.10
2022-08-09T06:03:10.756Z,16.60
2022-08-09T06:11:16.330Z,17.00
2022-08-09T06:21:19.074Z,17.70
2022-08-09T06:26:34.375Z,18.10
2022-08-09T06:37:00.909Z,19.20
2022-08-09T06:42:24.898Z,19.50
2022-08-09T06:44:59.363Z,19.70
2022-08-09T06:50:16.809Z,20.20
2022-08-09T06:52:49.946Z,20.70
2022-08-09T06:55:23.234Z,20.40
2022-08-09T06:58:02.548Z,20.60
2022-08-09T07:00:49.735Z,20.70
2022-08-09T07:03:28.482Z,21.10
2022-08-09T07:06:04.727Z,21.00
2022-08-09T07:14:04.448Z,21.60
2022-08-09T07:19:18.639Z,21.80
2022-08-09T07:21:57.010Z,21.90
2022-08-09T07:24:32.467Z,21.80
2022-08-09T07:30:03.133Z,22.10
2022-08-09T07:35:10.346Z,22.50
2022-08-09T07:37:44.579Z,22.70
2022-08-09T07:40:18.616Z,22.70
2022-08-09T07:42:52.458Z,22.90
2022-08-09T07:45:39.828Z,23.00
2022-08-09T07:54:05.190Z,23.10
2022-08-09T07:56:38.989Z,23.10
2022-08-09T07:59:25.174Z,23.20
2022-08-09T08:01:58.567Z,23.20
2022-08-09T08:12:45.133Z,23.50
2022-08-09T08:15:18.518Z,23.60
2022-08-09T08:17:58.175Z,23.80
2022-08-09T08:20:32.548Z,23.90
2022-08-09T08:23:15.740Z,24.00
2022-08-09T08:25:50.302Z,24.00
2022-08-09T08:33:52.670Z,24.70
2022-08-09T08:36:29.469Z,23.00
2022-08-09T08:41:51.112Z,25.40
2022-08-09T08:47:04.651Z,25.70
2022-08-09T08:49:48.686Z,25.90
2022-08-09T08:52:52.941Z,25.90
2022-08-09T08:55:15.193Z,26.00
2022-08-09T09:03:08.835Z,26.70
2022-08-09T09:05:59.715Z,26.90
2022-08-09T09:08:40.343Z,27.20
2022-08-09T09:13:57.164Z,27.60
2022-08-09T09:16:32.293Z,27.70
2022-08-09T09:22:13.841Z,27.50
2022-08-09T09:24:47.591Z,27.90
2022-08-09T09:28:06.804Z,28.00
2022-08-09T09:30:38.065Z,27.90
2022-08-09T09:33:16.439Z,27.60
2022-08-09T09:36:02.001Z,27.60
2022-08-09T09:38:50.570Z,27.90
2022-08-09T09:41:48.679Z,28.00
2022-08-09T09:44:27.984Z,28.20
2022-08-09T09:47:11.470Z,28.20
2022-08-09T09:50:14.354Z,28.30
2022-08-09T09:55:24.267Z,28.50
2022-08-09T09:58:18.251Z,28.40
2022-08-09T10:00:54.568Z,28.80
2022-08-09T10:03:57.545Z,29.10
2022-08-09T10:06:32.417Z,29.10
2022-08-09T10:09:12.019Z,29.50
2022-08-09T10:12:14.436Z,29.80
2022-08-09T10:14:52.034Z,29.70
2022-08-09T10:17:39.637Z,29.40
2022-08-09T10:20:32.307Z,29.50
2022-08-09T10:23:19.892Z,29.30
2022-08-09T10:26:04.450Z,29.40
2022-08-09T10:28:48.634Z,29.90
2022-08-09T10:37:01.546Z,29.80
2022-08-09T10:39:40.959Z,30.70
2022-08-09T10:42:19.936Z,30.30
2022-08-09T10:45:00.142Z,29.90
2022-08-09T10:48:14.505Z,29.60
2022-08-09T10:51:00.109Z,30.70
2022-08-09T10:53:46.800Z,30.00
2022-08-09T10:56:26.024Z,30.80
2022-08-09T10:58:57.312Z,31.00
2022-08-09T11:03:15.493Z,30.80
2022-08-09T11:04:35.662Z,31.30
2022-08-09T11:07:56.908Z,31.80
2022-08-09T11:11:00.525Z,31.70
2022-08-09T11:13:53.791Z,30.90
2022-08-09T11:16:41.043Z,30.50
2022-08-09T11:19:14.065Z,32.00
2022-08-09T11:22:16.615Z,32.20
2022-08-09T11:25:08.836Z,31.90
2022-08-09T11:28:04.750Z,31.30
2022-08-09T11:30:37.960Z,32.20
2022-08-09T11:33:13.119Z,31.20
2022-08-09T11:35:52.061Z,31.50
2022-08-09T11:38:32.292Z,31.40
2022-08-09T11:41:06.326Z,31.40
2022-08-09T11:43:45.620Z,32.20
2022-08-09T11:49:05.298Z,31.90
2022-08-09T11:53:00.943Z,32.20
2022-08-09T11:55:34.977Z,31.90
2022-08-09T11:58:50.023Z,32.10
2022-08-09T12:02:01.149Z,31.50
2022-08-09T12:04:20.916Z,31.20
2022-08-09T12:07:01.502Z,32.00
2022-08-09T12:09:35.462Z,32.20
2022-08-09T12:12:12.331Z,31.80
2022-08-09T12:17:44.306Z,33.20
2022-08-09T12:20:21.370Z,32.30
2022-08-09T12:22:56.626Z,32.40
2022-08-09T12:25:36.636Z,32.80
2022-08-09T12:29:10.807Z,33.20
2022-08-09T12:31:11.195Z,32.10
2022-08-09T12:34:01.063Z,32.50
2022-08-09T12:36:33.959Z,33.00
2022-08-09T12:39:17.363Z,33.20
2022-08-09T12:41:49.999Z,33.30
2022-08-09T12:44:24.561Z,33.40
2022-08-09T12:46:54.898Z,32.90
2022-08-09T12:52:02.284Z,33.70
2022-08-09T12:56:12.616Z,34.00
2022-08-09T12:57:42.969Z,34.80
2022-08-09T13:00:25.478Z,34.50
2022-08-09T13:02:58.056Z,33.40
2022-08-09T13:05:50.687Z,35.00
2022-08-09T13:08:39.731Z,34.10
2022-08-09T13:11:24.373Z,32.90
2022-08-09T13:14:42.653Z,33.90
2022-08-09T13:16:53.789Z,32.60
2022-08-09T13:20:08.740Z,31.60
2022-08-09T13:22:37.480Z,35.60
2022-08-09T13:25:12.203Z,33.20
2022-08-09T13:27:54.649Z,32.10
2022-08-09T13:30:51.116Z,32.10
2022-08-09T13:33:52.861Z,33.30
2022-08-09T13:36:39.107Z,33.70
2022-08-09T13:42:01.422Z,33.10
2022-08-09T13:44:35.916Z,32.80
2022-08-09T13:47:29.011Z,32.40
2022-08-09T13:50:00.762Z,33.00
2022-08-09T13:52:33.845Z,33.10
2022-08-09T13:55:07.276Z,33.90
2022-08-09T13:57:40.635Z,34.00
2022-08-09T14:00:17.023Z,29.70
2022-08-09T14:03:57.771Z,34.00
2022-08-09T14:11:00.485Z,30.40
2022-08-09T14:16:28.640Z,30.40
2022-08-09T14:24:10.347Z,31.70
2022-08-09T14:32:16.328Z,32.70
2022-08-09T14:34:56.824Z,32.60
2022-08-09T14:37:28.271Z,32.30
2022-08-09T14:42:32.349Z,31.10
2022-08-09T14:47:59.300Z,29.70
2022-08-09T14:50:32.485Z,30.30
2022-08-09T14:53:03.253Z,31.20
2022-08-09T14:58:12.258Z,31.80
2022-08-09T15:00:48.402Z,31.50
2022-08-09T15:03:24.049Z,31.60
2022-08-09T15:05:54.994Z,30.70
2022-08-09T15:11:04.834Z,29.70
2022-08-09T15:13:48.016Z,29.10
2022-08-09T15:19:15.893Z,28.40
2022-08-09T15:24:32.674Z,28.50
2022-08-09T15:27:02.676Z,29.10
2022-08-09T15:32:39.130Z,29.70
2022-08-09T15:35:40.150Z,29.50
2022-08-09T15:40:44.237Z,29.50
2022-08-09T15:43:14.821Z,28.90
2022-08-09T15:45:52.018Z,29.20
2022-08-09T15:48:36.079Z,28.70
2022-08-09T15:51:11.394Z,28.70
2022-08-09T15:56:49.303Z,29.10
2022-08-09T15:59:19.730Z,29.00
2022-08-09T16:01:50.015Z,29.10
2022-08-09T16:04:23.062Z,28.90
2022-08-09T16:06:55.934Z,28.80
2022-08-09T16:09:51.524Z,27.80
2022-08-09T16:14:46.387Z,27.60
2022-08-09T16:17:17.186Z,27.50
2022-08-09T16:22:36.430Z,27.40
2022-08-09T16:25:15.841Z,27.70
2022-08-09T16:30:25.989Z,27.60
2022-08-09T16:33:11.592Z,27.60
2022-08-09T16:35:55.692Z,27.80
2022-08-09T16:38:31.805Z,27.80
2022-08-09T16:51:29.793Z,27.60
2022-08-09T16:54:28.299Z,27.60
2022-08-09T17:04:28.611Z,27.00
2022-08-09T17:08:45.076Z,26.90
2022-08-09T17:09:52.049Z,26.80
2022-08-09T17:12:32.173Z,26.70
2022-08-09T17:15:31.492Z,26.50
2022-08-09T17:17:52.588Z,26.40
2022-08-09T17:20:37.652Z,26.50
2022-08-09T17:25:53.053Z,26.30
2022-08-09T17:30:53.570Z,26.10
2022-08-09T17:38:32.061Z,25.40
2022-08-09T17:41:07.105Z,25.40
2022-08-09T17:43:38.018Z,25.40
2022-08-09T17:46:09.988Z,25.40
2022-08-09T17:48:52.276Z,25.00
2022-08-09T17:51:23.371Z,25.40
2022-08-09T17:53:55.814Z,25.40
2022-08-09T17:56:32.581Z,25.00
2022-08-09T17:59:11.859Z,25.00
2022-08-09T18:02:06.963Z,24.90
2022-08-09T18:04:36.795Z,24.90
2022-08-09T18:10:04.285Z,24.50
2022-08-09T18:12:40.468Z,24.60
2022-08-09T18:16:08.052Z,24.40
2022-08-09T18:21:19.077Z,23.80
2022-08-09T18:26:46.805Z,23.90
2022-08-09T18:30:40.708Z,24.10
2022-08-09T18:32:12.133Z,23.70
2022-08-09T18:34:43.557Z,23.80
2022-08-09T18:40:05.183Z,23.30
2022-08-09T18:42:36.400Z,23.40
2022-08-09T18:45:21.513Z,22.50
2022-08-09T18:48:01.793Z,23.00
2022-08-09T18:50:33.667Z,22.60
2022-08-09T18:53:04.661Z,22.90
2022-08-09T18:55:56.500Z,22.70
2022-08-09T18:58:33.161Z,22.50
2022-08-09T19:01:05.886Z,22.40
2022-08-09T19:03:57.737Z,21.80
2022-08-09T19:06:26.080Z,22.20
2022-08-09T19:09:02.489Z,22.30
2022-08-09T19:11:38.022Z,22.10
2022-08-09T19:16:42.649Z,21.60
2022-08-09T19:19:25.274Z,21.50
2022-08-09T19:22:06.871Z,21.80
2022-08-09T19:25:07.643Z,21.40
2022-08-09T19:27:31.356Z,21.00
2022-08-09T19:30:25.247Z,21.10
2022-08-09T19:32:55.381Z,21.10
2022-08-09T19:35:26.768Z,21.00
2022-08-09T19:37:57.659Z,21.80
2022-08-09T19:43:10.365Z,20.70
2022-08-09T19:45:47.299Z,20.90
2022-08-09T19:49:00.535Z,20.50
2022-08-09T19:51:11.569Z,20.20
2022-08-09T19:53:45.474Z,20.30
2022-08-09T19:56:28.830Z,20.40
2022-08-09T19:59:39.676Z,20.50
2022-08-09T20:02:05.269Z,20.20
2022-08-09T20:04:47.924Z,19.90
2022-08-09T20:07:23.109Z,19.90
2022-08-09T20:09:53.088Z,20.00
2022-08-09T20:12:41.393Z,19.40
2022-08-09T20:16:35.774Z,19.60
2022-08-09T20:18:03.711Z,21.10
2022-08-09T20:20:41.008Z,19.40
2022-08-09T20:23:11.477Z,19.60
2022-08-09T20:28:34.462Z,19.60
2022-08-09T20:31:14.193Z,19.40
2022-08-09T20:36:20.211Z,19.10
2022-08-09T20:41:40.709Z,18.90
2022-08-09T20:44:11.197Z,20.20
2022-08-09T20:46:44.458Z,18.90
2022-08-09T20:49:16.738Z,19.30
2022-08-09T20:51:50.801Z,19.00
2022-08-09T20:54:21.985Z,18.70
2022-08-09T20:56:54.568Z,19.20
2022-08-09T21:00:19.211Z,18.30
2022-08-09T21:02:18.675Z,19.20
2022-08-09T21:05:53.960Z,18.80
2022-08-09T21:07:44.525Z,19.70
2022-08-09T21:15:34.727Z,19.20
2022-08-09T21:18:11.479Z,18.90
2022-08-09T21:20:54.539Z,19.00
2022-08-09T21:23:47.786Z,18.90
2022-08-09T21:26:18.808Z,18.70
2022-08-09T21:28:55.476Z,18.70
2022-08-09T21:31:48.080Z,18.70
2022-08-09T21:34:28.453Z,18.30
2022-08-09T21:36:59.285Z,18.80
2022-08-09T21:39:42.274Z,18.30
2022-08-09T21:44:43.659Z,18.20
2022-08-09T21:47:17.428Z,18.50
2022-08-09T21:49:49.667Z,18.40
2022-08-09T21:52:22.340Z,19.30
2022-08-09T21:55:03.330Z,18.30
2022-08-09T21:57:39.190Z,18.30
2022-08-09T22:00:32.092Z,17.90
2022-08-09T22:03:05.839Z,18.20
2022-08-09T22:05:42.214Z,18.10
2022-08-09T22:08:15.073Z,18.00
2022-08-09T22:11:50.259Z,18.40
2022-08-09T22:16:13.876Z,18.20
2022-08-09T22:18:54.047Z,17.30
2022-08-09T22:21:27.400Z,17.70
2022-08-09T22:24:17.018Z,17.30
2022-08-09T22:26:53.471Z,17.70
2022-08-09T22:29:32.379Z,17.90
2022-08-09T22:35:06.249Z,17.90
2022-08-09T22:43:17.010Z,17.40
2022-08-09T22:48:51.909Z,17.30
2022-08-09T22:51:24.231Z,17.70
2022-08-09T22:54:02.269Z,17.20
2022-08-09T22:59:58.469Z,17.60
2022-08-09T23:01:58.287Z,17.70
2022-08-09T23:04:32.547Z,17.60
2022-08-09T23:10:11.902Z,17.50
2022-08-09T23:12:41.865Z,17.00
2022-08-09T23:15:14.620Z,17.40
2022-08-09T23:20:14.862Z,18.20
2022-08-09T23:22:44.936Z,17.00
2022-08-09T23:28:14.001Z,17.20
2022-08-09T23:30:38.721Z,17.60
2022-08-09T23:33:08.665Z,17.70
2022-08-09T23:36:04.697Z,17.20
2022-08-09T23:40:58.776Z,17.10
2022-08-09T23:46:01.733Z,17.30
2022-08-09T23:53:33.595Z,16.90
2022-08-09T23:56:09.082Z,16.60
2022-08-09T23:58:39.065Z,16.60
